createdAt,value
2023-03-03T00:00:34.178Z,37.57
2023-03-03T00:03:07.299Z,37.67
2023-03-03T00:05:36.473Z,37.73
2023-03-03T00:08:05.046Z,38.27
2023-03-03T00:10:33.446Z,38.23
2023-03-03T00:13:01.629Z,38.40
2023-03-03T00:15:32.360Z,37.87
2023-03-03T00:18:01.003Z,38.37
2023-03-03T00:20:40.476Z,39.43
2023-03-03T00:23:18.419Z,38.27
2023-03-03T00:25:47.775Z,38.57
2023-03-03T00:28:25.086Z,38.27
2023-03-03T00:30:55.677Z,39.70
2023-03-03T00:33:29.698Z,38.50
2023-03-03T00:35:58.160Z,39.00
2023-03-03T00:38:26.322Z,38.23
2023-03-03T00:40:54.851Z,39.77
2023-03-03T00:43:24.875Z,38.57
2023-03-03T00:45:55.856Z,40.00
2023-03-03T00:48:27.978Z,37.87
2023-03-03T00:50:57.998Z,38.97
2023-03-03T00:53:28.596Z,39.80
2023-03-03T00:55:56.832Z,38.53
2023-03-03T00:58:25.741Z,39.63
2023-03-03T01:00:58.954Z,38.93
2023-03-03T01:03:27.789Z,39.63
2023-03-03T01:05:57.926Z,40.00
2023-03-03T01:08:26.539Z,40.77
2023-03-03T01:10:57.460Z,40.03
2023-03-03T01:13:28.917Z,40.53
2023-03-03T01:15:58.573Z,39.37
2023-03-03T01:18:27.102Z,38.90
2023-03-03T01:20:55.303Z,38.40
2023-03-03T01:23:23.498Z,37.83
2023-03-03T01:25:51.503Z,39.27
2023-03-03T01:28:19.697Z,37.77
2023-03-03T01:30:47.950Z,38.00
2023-03-03T01:33:17.535Z,37.63
2023-03-03T01:35:46.476Z,37.50
2023-03-03T01:38:14.836Z,36.93
2023-03-03T01:40:42.929Z,37.13
2023-03-03T01:43:15.833Z,37.13
2023-03-03T01:46:01.494Z,34.87
2023-03-03T01:48:34.625Z,35.53
2023-03-03T01:51:05.176Z,36.63
2023-03-03T01:53:38.103Z,34.97
2023-03-03T01:56:09.614Z,35.30
2023-03-03T01:58:40.969Z,35.23
2023-03-03T02:01:14.638Z,34.87
2023-03-03T02:03:45.339Z,34.53
2023-03-03T02:06:16.250Z,33.60
2023-03-03T02:08:50.284Z,34.33
2023-03-03T02:11:18.642Z,34.60
2023-03-03T02:13:46.791Z,34.53
2023-03-03T02:16:15.097Z,34.07
2023-03-03T02:18:44.730Z,34.07
2023-03-03T02:21:15.309Z,34.47
2023-03-03T02:23:51.618Z,33.80
2023-03-03T02:26:23.977Z,34.80
2023-03-03T02:28:53.612Z,33.07
2023-03-03T02:31:24.118Z,33.13
2023-03-03T02:33:53.774Z,33.33
2023-03-03T02:36:25.121Z,32.77
2023-03-03T02:39:00.612Z,33.07
2023-03-03T02:41:36.512Z,33.03
2023-03-03T02:44:09.854Z,32.20
2023-03-03T02:46:40.127Z,32.17
2023-03-03T02:49:10.102Z,32.13
2023-03-03T02:51:39.087Z,31.90
2023-03-03T02:54:08.374Z,32.40
2023-03-03T02:56:38.304Z,32.53
2023-03-03T02:59:07.028Z,32.80
2023-03-03T03:01:37.119Z,32.77
2023-03-03T03:04:09.453Z,32.47
2023-03-03T03:06:37.848Z,32.93
2023-03-03T03:09:07.859Z,32.67
2023-03-03T03:11:40.389Z,32.97
2023-03-03T03:14:10.590Z,32.53
2023-03-03T03:16:39.393Z,32.10
2023-03-03T03:19:08.880Z,31.97
2023-03-03T03:21:37.311Z,33.30
2023-03-03T03:24:05.614Z,32.83
2023-03-03T03:26:33.667Z,32.43
2023-03-03T03:29:03.260Z,32.30
2023-03-03T03:31:31.500Z,31.80
2023-03-03T03:34:00.506Z,31.90
2023-03-03T03:36:29.315Z,30.33
2023-03-03T03:38:57.541Z,32.30
2023-03-03T03:41:25.569Z,31.83
2023-03-03T03:43:53.731Z,32.80
2023-03-03T03:46:23.400Z,32.63
2023-03-03T03:48:51.498Z,32.77
2023-03-03T03:51:19.672Z,33.57
2023-03-03T03:53:47.713Z,33.13
2023-03-03T03:56:17.994Z,33.30
2023-03-03T03:58:46.010Z,31.97
2023-03-03T04:01:15.032Z,31.60
2023-03-03T04:03:45.101Z,32.47
2023-03-03T04:06:13.023Z,31.90
2023-03-03T04:08:41.085Z,30.83
2023-03-03T04:11:09.141Z,30.27
2023-03-03T04:13:37.459Z,31.50
2023-03-03T04:16:05.847Z,31.03
2023-03-03T04:18:33.923Z,32.00
2023-03-03T04:21:03.488Z,32.40
2023-03-03T04:23:31.449Z,32.37
2023-03-03T04:25:59.465Z,32.70
2023-03-03T04:28:27.394Z,33.10
2023-03-03T04:30:56.153Z,32.93
2023-03-03T04:33:24.263Z,33.07
2023-03-03T04:35:52.662Z,33.40
2023-03-03T04:38:22.158Z,31.17
2023-03-03T04:40:50.623Z,30.80
2023-03-03T04:43:18.892Z,33.03
2023-03-03T04:45:47.166Z,33.07
2023-03-03T04:48:15.412Z,34.17
2023-03-03T04:50:44.125Z,33.37
2023-03-03T04:53:12.181Z,33.57
2023-03-03T04:55:41.631Z,33.87
2023-03-03T04:58:10.379Z,34.43
2023-03-03T05:00:38.636Z,34.00
2023-03-03T05:03:06.640Z,33.40
2023-03-03T05:05:34.810Z,30.67
2023-03-03T05:08:05.225Z,32.30
2023-03-03T05:10:35.104Z,30.87
2023-03-03T05:13:07.037Z,31.47
2023-03-03T05:15:35.752Z,32.40
2023-03-03T05:18:03.837Z,31.33
2023-03-03T05:20:31.986Z,31.37
2023-03-03T05:33:51.782Z,29.30
2023-03-03T05:36:23.921Z,28.70
2023-03-03T05:38:52.355Z,25.43
2023-03-03T05:41:20.589Z,28.70
2023-03-03T05:43:51.111Z,26.53
2023-03-03T05:46:20.107Z,26.53
2023-03-03T05:48:50.063Z,28.03
2023-03-03T05:51:18.509Z,28.83
2023-03-03T06:21:23.309Z,30.20
2023-03-03T06:23:52.117Z,30.50
2023-03-03T06:26:20.929Z,29.40
2023-03-03T06:28:50.500Z,30.33
2023-03-03T06:31:27.869Z,31.33
2023-03-03T06:33:59.654Z,30.97
2023-03-03T06:36:33.731Z,31.63
2023-03-03T06:39:03.378Z,31.90
2023-03-03T06:41:32.122Z,32.00
2023-03-03T06:44:07.475Z,31.73
2023-03-03T06:46:36.257Z,33.17
2023-03-03T06:49:13.255Z,32.90
2023-03-03T06:51:46.928Z,33.10
2023-03-03T06:54:30.926Z,28.63
2023-03-03T06:57:31.033Z,29.93
2023-03-03T07:00:50.171Z,30.13
2023-03-03T07:03:57.278Z,29.67
2023-03-03T07:06:36.109Z,28.67
2023-03-03T07:09:25.508Z,28.63
2023-03-03T07:15:49.539Z,29.33
2023-03-03T07:18:46.680Z,29.50
2023-03-03T07:22:31.881Z,29.73
2023-03-03T07:25:19.978Z,29.80
2023-03-03T07:27:51.223Z,32.00
2023-03-03T07:30:26.296Z,30.03
2023-03-03T07:32:59.700Z,30.07
2023-03-03T07:35:45.230Z,29.83
2023-03-03T07:38:24.447Z,30.60
2023-03-03T07:41:06.636Z,29.80
2023-03-03T07:43:39.609Z,29.73
2023-03-03T07:46:24.809Z,28.87
2023-03-03T07:48:54.796Z,28.60
2023-03-03T07:51:28.169Z,28.03
2023-03-03T07:54:19.302Z,27.53
2023-03-03T07:56:49.327Z,26.23
2023-03-03T07:59:23.141Z,26.33
2023-03-03T08:01:55.319Z,27.27
2023-03-03T08:04:28.829Z,26.90
2023-03-03T08:06:58.428Z,27.00
2023-03-03T08:09:32.266Z,27.60
2023-03-03T08:12:14.633Z,27.40
2023-03-03T08:14:42.769Z,26.27
2023-03-03T08:17:18.570Z,26.70
2023-03-03T08:19:47.076Z,26.33
2023-03-03T08:22:28.858Z,28.00
2023-03-03T08:24:56.992Z,27.30
2023-03-03T08:27:26.506Z,27.67
2023-03-03T08:29:54.714Z,27.03
2023-03-03T08:32:22.987Z,27.27
2023-03-03T08:34:51.057Z,27.20
2023-03-03T08:37:19.022Z,26.60
2023-03-03T08:39:47.163Z,25.53
2023-03-03T08:42:16.355Z,26.23
2023-03-03T08:44:46.959Z,26.73
2023-03-03T08:47:15.298Z,26.13
2023-03-03T08:49:43.455Z,27.80
2023-03-03T08:52:11.776Z,26.20
2023-03-03T08:54:39.924Z,26.20
2023-03-03T08:57:08.184Z,27.93
2023-03-03T08:59:39.082Z,26.83
2023-03-03T09:02:09.066Z,26.33
2023-03-03T09:04:42.536Z,26.67
2023-03-03T09:07:11.997Z,26.70
2023-03-03T09:09:40.175Z,27.73
2023-03-03T09:12:17.070Z,27.57
2023-03-03T09:14:45.139Z,27.87
2023-03-03T09:17:44.742Z,28.27
2023-03-03T09:20:26.728Z,27.27
2023-03-03T09:22:55.603Z,27.23
2023-03-03T09:25:28.818Z,27.60
2023-03-03T09:27:57.792Z,27.40
2023-03-03T09:30:37.531Z,27.70
2023-03-03T09:33:27.998Z,28.07
2023-03-03T09:36:04.358Z,29.70
2023-03-03T09:38:34.620Z,28.17
2023-03-03T09:41:31.606Z,28.63
2023-03-03T09:44:29.265Z,29.40
2023-03-03T09:47:11.904Z,28.87
2023-03-03T09:49:54.762Z,28.73
2023-03-03T09:52:34.617Z,28.90
2023-03-03T09:55:20.621Z,29.53
2023-03-03T09:58:11.209Z,28.47
2023-03-03T10:00:47.494Z,29.07
2023-03-03T10:03:46.363Z,28.17
2023-03-03T10:06:25.866Z,29.17
2023-03-03T10:09:09.548Z,29.70
2023-03-03T10:11:43.380Z,29.50
2023-03-03T10:14:49.683Z,28.93
2023-03-03T10:17:28.583Z,28.87
2023-03-03T10:20:11.600Z,28.90
2023-03-03T10:22:52.210Z,28.70
2023-03-03T10:25:30.386Z,29.70
2023-03-03T10:28:20.957Z,29.23
2023-03-03T10:31:08.063Z,29.70
2023-03-03T10:33:45.197Z,30.47
2023-03-03T10:36:30.495Z,30.20
2023-03-03T10:39:17.246Z,30.70
2023-03-03T10:42:00.535Z,30.30
2023-03-03T10:44:42.378Z,29.50
2023-03-03T10:47:37.990Z,30.57
2023-03-03T10:50:16.727Z,30.33
2023-03-03T10:52:50.472Z,30.17
2023-03-03T10:55:47.109Z,30.73
2023-03-03T10:58:33.572Z,31.13
2023-03-03T11:01:12.304Z,32.70
2023-03-03T11:04:02.757Z,31.80
2023-03-03T11:06:39.788Z,31.75
2023-03-03T11:09:18.600Z,31.93
2023-03-03T11:11:55.783Z,33.67
2023-03-03T11:14:29.523Z,33.53
2023-03-03T11:17:04.537Z,35.73
2023-03-03T11:19:47.685Z,34.13
2023-03-03T11:22:34.822Z,33.53
2023-03-03T11:25:17.466Z,35.93
2023-03-03T11:27:59.514Z,35.93
2023-03-03T11:30:41.747Z,34.83
2023-03-03T11:33:15.836Z,34.77
2023-03-03T11:35:49.119Z,33.87
2023-03-03T11:38:33.968Z,34.50
2023-03-03T11:41:05.905Z,34.53
2023-03-03T11:43:39.935Z,34.43
2023-03-03T11:46:12.905Z,37.97
2023-03-03T11:48:50.014Z,38.03
2023-03-03T11:51:25.071Z,39.08
2023-03-03T11:54:00.862Z,38.67
2023-03-03T11:56:35.081Z,38.00
2023-03-03T11:59:21.535Z,38.00
2023-03-03T12:01:56.329Z,40.83
2023-03-03T12:04:33.323Z,40.20
2023-03-03T12:07:19.517Z,36.58
2023-03-03T12:09:56.520Z,20.20
2023-03-03T12:12:26.296Z,9.85
2023-03-03T12:15:12.931Z,7.03
2023-03-03T12:18:01.847Z,7.75
2023-03-03T12:20:39.556Z,7.35
2023-03-03T12:23:26.611Z,7.82
2023-03-03T12:26:04.541Z,9.32
2023-03-03T12:28:39.441Z,5.90
2023-03-03T12:31:30.868Z,2.92
2023-03-03T12:34:04.942Z,2.95
2023-03-03T12:36:52.635Z,2.30
2023-03-03T12:39:40.076Z,1.75
2023-03-03T12:42:17.046Z,2.20
2023-03-03T12:44:52.765Z,1.90
2023-03-03T12:47:30.389Z,1.95
2023-03-03T12:50:16.191Z,1.88
2023-03-03T12:52:54.745Z,2.00
2023-03-03T12:55:32.297Z,1.75
2023-03-03T12:58:06.104Z,1.90
2023-03-03T13:00:45.021Z,1.85
2023-03-03T13:03:55.469Z,1.90
2023-03-03T13:06:30.199Z,1.65
2023-03-03T13:09:10.225Z,1.40
2023-03-03T13:12:12.357Z,1.60
2023-03-03T13:14:47.997Z,1.75
2023-03-03T13:17:24.436Z,1.60
2023-03-03T13:20:00.291Z,1.70
2023-03-03T13:22:39.471Z,1.40
2023-03-03T13:25:26.894Z,1.60
2023-03-03T13:28:01.962Z,1.70
2023-03-03T13:30:35.498Z,1.60
2023-03-03T13:33:11.108Z,1.40
2023-03-03T13:35:44.846Z,1.63
2023-03-03T13:38:15.608Z,2.03
2023-03-03T13:40:47.390Z,1.50
2023-03-03T13:43:19.947Z,1.52
2023-03-03T13:45:59.962Z,1.40
2023-03-03T13:48:39.991Z,1.67
2023-03-03T13:51:21.027Z,1.52
2023-03-03T13:53:57.774Z,1.30
2023-03-03T13:56:36.942Z,1.60
2023-03-03T13:59:23.720Z,2.20
2023-03-03T14:01:59.301Z,1.70
2023-03-03T14:04:43.882Z,1.70
2023-03-03T14:07:19.813Z,2.00
2023-03-03T14:10:00.848Z,1.58
2023-03-03T14:12:39.896Z,1.50
2023-03-03T14:15:20.835Z,1.70
2023-03-03T14:18:06.177Z,1.40
2023-03-03T14:20:39.794Z,1.45
2023-03-03T14:23:17.777Z,1.92
2023-03-03T14:26:08.094Z,1.90
2023-03-03T14:28:41.138Z,1.95
2023-03-03T14:31:28.661Z,1.88
2023-03-03T14:34:02.575Z,2.10
2023-03-03T14:36:42.606Z,1.80
2023-03-03T14:39:45.725Z,1.75
2023-03-03T14:42:15.742Z,2.00
2023-03-03T14:45:01.042Z,1.90
2023-03-03T14:47:32.791Z,2.10
2023-03-03T14:50:04.095Z,2.30
2023-03-03T14:52:35.943Z,2.20
2023-03-03T14:55:32.074Z,2.38
2023-03-03T14:58:00.651Z,2.60
2023-03-03T15:00:37.154Z,2.47
2023-03-03T15:03:22.403Z,2.63
2023-03-03T15:05:53.738Z,2.22
2023-03-03T15:08:32.784Z,2.70
2023-03-03T15:11:20.637Z,2.13
2023-03-03T15:13:49.047Z,2.38
2023-03-03T15:16:22.063Z,2.13
2023-03-03T15:19:24.895Z,2.00
2023-03-03T15:22:12.565Z,2.13
2023-03-03T15:24:47.402Z,2.03
2023-03-03T15:27:25.087Z,2.40
2023-03-03T15:30:06.719Z,2.00
2023-03-03T15:32:40.549Z,1.97
2023-03-03T15:35:22.712Z,1.80
2023-03-03T15:38:00.206Z,1.70
2023-03-03T15:40:36.489Z,1.95
2023-03-03T15:43:21.036Z,1.60
2023-03-03T15:45:55.978Z,2.13
2023-03-03T15:48:37.737Z,2.05
2023-03-03T15:51:20.557Z,1.90
2023-03-03T15:54:24.878Z,2.00
2023-03-03T15:56:58.518Z,1.90
2023-03-03T15:59:47.205Z,2.60
2023-03-03T16:02:29.124Z,2.27
2023-03-03T16:05:06.543Z,2.47
2023-03-03T16:07:48.132Z,2.37
2023-03-03T16:10:31.327Z,2.10
2023-03-03T16:13:12.266Z,1.83
2023-03-03T16:15:54.266Z,2.30
2023-03-03T16:18:34.275Z,2.27
2023-03-03T16:21:19.503Z,2.10
2023-03-03T16:23:49.969Z,1.90
2023-03-03T16:26:40.371Z,1.40
2023-03-03T16:29:44.997Z,1.20
2023-03-03T16:32:23.654Z,1.80
2023-03-03T16:35:05.590Z,1.80
2023-03-03T16:37:40.128Z,1.70
2023-03-03T16:40:15.912Z,1.80
2023-03-03T16:42:50.703Z,1.90
2023-03-03T16:45:27.706Z,1.83
2023-03-03T16:48:18.346Z,1.83
2023-03-03T16:51:08.241Z,1.60
2023-03-03T16:53:49.914Z,1.90
2023-03-03T16:56:24.908Z,1.30
2023-03-03T16:59:30.414Z,1.60
2023-03-03T17:02:09.945Z,1.50
2023-03-03T17:04:44.796Z,2.20
2023-03-03T17:07:23.474Z,1.87
2023-03-03T17:10:05.377Z,1.83
2023-03-03T17:12:47.957Z,1.50
2023-03-03T17:15:33.492Z,1.50
2023-03-03T17:18:13.086Z,2.10
2023-03-03T17:20:49.392Z,1.50
2023-03-03T17:23:36.154Z,1.50
2023-03-03T17:26:20.686Z,2.60
2023-03-03T17:28:59.882Z,2.00
2023-03-03T17:31:39.768Z,2.03
2023-03-03T17:34:21.105Z,3.33
2023-03-03T17:37:00.897Z,1.80
2023-03-03T17:40:05.242Z,2.10
2023-03-03T17:42:41.578Z,2.63
2023-03-03T17:45:12.589Z,1.77
2023-03-03T17:48:05.820Z,1.90
2023-03-03T17:51:06.064Z,2.27
2023-03-03T17:53:53.824Z,2.00
2023-03-03T17:56:27.441Z,2.17
2023-03-03T17:59:17.959Z,2.20
2023-03-03T18:02:02.664Z,2.20
2023-03-03T18:04:52.004Z,2.07
2023-03-03T18:07:44.890Z,2.43
2023-03-03T18:10:42.950Z,2.73
2023-03-03T18:13:28.818Z,2.80
2023-03-03T18:16:12.557Z,2.87
2023-03-03T18:19:00.159Z,3.27
2023-03-03T18:21:34.881Z,1.97
2023-03-03T18:24:29.227Z,2.43
2023-03-03T18:27:28.203Z,2.63
2023-03-03T18:30:29.808Z,2.47
2023-03-03T18:33:08.417Z,2.47
2023-03-03T18:35:40.968Z,2.80
2023-03-03T18:38:34.703Z,2.87
2023-03-03T18:41:04.525Z,2.47
2023-03-03T18:43:59.107Z,2.60
2023-03-03T18:46:50.337Z,2.67
2023-03-03T18:49:19.603Z,3.07
2023-03-03T18:52:22.497Z,2.47
2023-03-03T18:55:29.998Z,2.97
2023-03-03T18:58:40.879Z,2.33
2023-03-03T19:01:38.017Z,2.40
2023-03-03T19:04:24.322Z,2.47
2023-03-03T19:07:26.736Z,3.07
2023-03-03T19:09:58.395Z,2.97
2023-03-03T19:12:53.127Z,2.90
2023-03-03T19:15:56.028Z,2.97
2023-03-03T19:18:28.160Z,3.23
2023-03-03T19:20:59.577Z,2.40
2023-03-03T19:23:51.063Z,3.00
2023-03-03T19:26:44.381Z,2.47
2023-03-03T19:29:44.443Z,2.53
2023-03-03T19:32:32.384Z,2.90
2023-03-03T19:35:18.577Z,2.87
2023-03-03T19:37:57.364Z,2.87
2023-03-03T19:40:34.763Z,3.13
2023-03-03T19:43:12.543Z,3.03
2023-03-03T19:45:59.034Z,3.43
2023-03-03T19:48:36.401Z,3.03
2023-03-03T19:51:19.581Z,2.57
2023-03-03T19:53:55.245Z,2.70
2023-03-03T19:56:36.327Z,2.90
2023-03-03T19:59:15.332Z,2.80
2023-03-03T20:01:55.021Z,2.80
2023-03-03T20:04:42.811Z,3.33
2023-03-03T20:07:24.016Z,2.90
2023-03-03T20:10:00.001Z,2.70
2023-03-03T20:12:40.529Z,2.77
2023-03-03T20:15:15.265Z,3.13
2023-03-03T20:18:01.977Z,2.97
2023-03-03T20:20:51.979Z,2.97
2023-03-03T20:23:29.701Z,2.97
2023-03-03T20:26:06.835Z,2.93
2023-03-03T20:28:58.153Z,2.90
2023-03-03T20:31:33.819Z,3.10
2023-03-03T20:34:11.820Z,3.00
2023-03-03T20:36:50.832Z,3.03
2023-03-03T20:39:51.589Z,3.87
2023-03-03T20:42:30.229Z,3.42
2023-03-03T20:45:20.243Z,3.10
2023-03-03T20:47:59.856Z,3.50
2023-03-03T20:50:37.619Z,3.37
2023-03-03T20:53:19.233Z,3.37
2023-03-03T20:55:59.170Z,2.60
2023-03-03T20:58:38.298Z,3.40
2023-03-03T21:01:09.599Z,3.53
2023-03-03T21:03:39.941Z,3.20
2023-03-03T21:06:15.291Z,3.43
2023-03-03T21:08:49.780Z,3.10
2023-03-03T21:11:23.827Z,3.37
2023-03-03T21:13:54.812Z,3.37
2023-03-03T21:16:35.829Z,3.10
2023-03-03T21:19:06.282Z,3.27
2023-03-03T21:21:37.430Z,2.80
2023-03-03T21:24:11.680Z,3.33
2023-03-03T21:26:49.667Z,2.67
2023-03-03T21:29:21.977Z,3.53
2023-03-03T21:31:51.476Z,2.73
2023-03-03T21:34:21.710Z,2.80
2023-03-03T21:36:51.042Z,2.90
2023-03-03T21:39:25.243Z,3.80
2023-03-03T21:41:57.882Z,3.03
2023-03-03T21:44:35.142Z,3.38
2023-03-03T21:47:04.653Z,3.53
2023-03-03T21:49:32.954Z,3.17
2023-03-03T21:52:01.606Z,3.37
2023-03-03T21:54:32.340Z,3.43
2023-03-03T21:57:04.678Z,3.87
2023-03-03T21:59:32.777Z,3.43
2023-03-03T22:02:01.051Z,3.37
2023-03-03T22:04:31.579Z,3.30
2023-03-03T22:06:59.682Z,3.43
2023-03-03T22:09:28.264Z,3.30
2023-03-03T22:11:56.587Z,3.47
2023-03-03T22:14:26.326Z,3.47
2023-03-03T22:16:54.895Z,3.23
2023-03-03T22:19:23.157Z,4.40
2023-03-03T22:21:52.162Z,3.00
2023-03-03T22:24:20.979Z,3.60
2023-03-03T22:26:49.275Z,3.73
2023-03-03T22:29:22.968Z,3.57
2023-03-03T22:31:52.870Z,3.40
2023-03-03T22:34:21.665Z,3.20
2023-03-03T22:36:50.257Z,3.30
2023-03-03T22:39:18.519Z,3.23
2023-03-03T22:41:46.714Z,3.33
2023-03-03T22:44:14.824Z,4.67
2023-03-03T22:46:42.925Z,3.40
2023-03-03T22:49:12.617Z,3.73
2023-03-03T22:51:41.689Z,3.47
2023-03-03T22:54:09.902Z,3.43
2023-03-03T22:56:38.106Z,2.70
2023-03-03T22:59:06.185Z,3.43
2023-03-03T23:01:49.813Z,4.27
2023-03-03T23:04:19.393Z,3.30
2023-03-03T23:06:47.664Z,3.17
2023-03-03T23:09:15.948Z,3.63
2023-03-03T23:12:40.893Z,3.10
2023-03-03T23:15:13.339Z,3.40
2023-03-03T23:17:45.520Z,3.80
2023-03-03T23:20:19.829Z,2.77
2023-03-03T23:22:48.179Z,2.77
2023-03-03T23:25:16.830Z,4.00
2023-03-03T23:27:45.575Z,3.27
2023-03-03T23:30:16.178Z,2.90
2023-03-03T23:32:44.239Z,3.33
2023-03-03T23:35:12.319Z,2.80
2023-03-03T23:37:41.892Z,3.17
2023-03-03T23:40:12.498Z,3.20
2023-03-03T23:42:40.719Z,3.60
2023-03-03T23:45:09.938Z,3.07
2023-03-03T23:47:38.264Z,3.20
2023-03-03T23:50:07.178Z,3.10
2023-03-03T23:52:41.182Z,2.90
2023-03-03T23:55:11.738Z,3.50
2023-03-03T23:57:39.899Z,3.40
